Browning, MT (59417)

6:12 AM MST on February 27, 2015 (GMT -0700)
De La Salle Blackfeet School | Change Station
CLOSE
Current Station
Personal Weather Station
Location: Browning, MT
Elevation: 4367 ft
Nearby Weather Stations

Elev 4367 ft 48.56 °N, 113.02 °W | Updated 2 seconds ago

Overcast
Overcast
13.6 °F
Feels Like 14 °F
N
0.0
Wind Variable Wind from West
Gusts 7.0 mph

Today
High -- | Low -- °F
--% Chance of Precip.
Yesterday
High -- | Low -- °F
Precip. -- in
7:17 AM 6:12 PM
Waxing Gibbous, 68% visible
Pressure 30.16 in
Visibility 10.0 miles
Clouds Mostly Cloudy 8500 ft
Windchill 14 °F
Dew Point 9 °F
Humidity 81%
Rainfall 0.00 in
Snow Depth Not available.
UV 0 out of 12
Pollen .50 out of 12
Air Quality Not available.
Flu Activity Not available.
METAR KCTB 271256Z AUTO 01005KT 10SM BKN085 M16/M17 A2994 RMK AO2 SLP211 T11561172

More Conditions Fewer Conditions

Pressure 30.16 in
Visibility 10.0 miles
Clouds Mostly Cloudy 8500 ft
Windchill 14 °F
Dew Point 9 °F
Humidity 81%
Rainfall 0.00 in
Snow Depth Not available.
UV 0 out of 12
Pollen .50 out of 12
Air Quality Not available.
Flu Activity Not available.
METAR KCTB 271256Z AUTO 01005KT 10SM BKN085 M16/M17 A2994 RMK AO2 SLP211 T11561172

More Conditions Fewer Conditions

10-Day Weather Forecast

Almanac

Astronomy

Feb. 27, 2015 Rise Set
Actual Time
Civil Twilight
Nautical Twilight
Astronomical Twilight
Moon
Length of Visible Light
Length of Day
Tomorrow will be .
, % of the Moon is Illuminated

Today's Extremes

State Highs State Lows

Community

WunderPhotos

Upload Photos

1,800,668 photos uploaded!

WunderBlogs® & News

Nearby

Air Quality

  Air Quality AQ Index Pollutant
Not available.

Snow Depth

Station Depth Elevation

Earthquake Activity

City Distance Mag. Time & Date
Minimum magnitude displayed is 2.5.

Coastal Water Temperatures

Place Temperature

Nearby Weather Stations